Accueil
METAR-TAF:

METAR-TAF

Aéroports :

Houlton International Airport

Houlton, Maine, États-Unis

latitude: 46-07-23N, longitude: 067-47-31W, altitude: 149 m

Observation

Le bulletin a été fait il y a 29 minutes, à 16:53 UTC
Vent 5 kt de direction variable
Température 26°C
Humidité 37%
Pression 1016 hPa
Visibilité: 16.1 km
Ciel clair

METAR: KHUL 201653Z AUTO VRB05KT 10SM CLR 26/10 A2999 RMK AO2 SLP154 T02560100

Heure: 13:22 (17:22 UTC)

Prévision

Le bulletin a été fait il y a 6 heures et 2 minutes, à 11:20 UTC
Prévision valable du 20 à 12 UTC au 21 à 12 UTC
Vent 5 kt de ouest
Visibilité: 10 km
Quelques nuages à une hauteur de 9000 ft
A partir de 20 à 1700 UTC
Vent 6 kt de ouest
Visibilité: 10 km
Ciel clair
A partir de 21 à 0500 UTC
Vent 3 kt de sud/sud-ouest
Visibilité: 10 km
Ciel clair

TAF: KHUL 201120Z 2012/2112 27005KT P6SM FEW090 FM201700 28006KT P6SM SKC FM210500 21003KT P6SM SKC

Observations et prévisions météorologiques de plus de 4000 aéroports (messages METAR et TAF).

Les stations disponibles sont représentées par des disques jaunes et rouges sur la carte.

Passer la souris dessus pour voir le nom de la station.

Cliquer dessus pour voir les observations et prévisions météorologiques.

Pour changer de carte: cliquez sur les boutons verts avec une croix noire pour zoomer, sur le bouton vert avec un tiret pour effectuer un zoom arrière, ou sur les flèches vertes pour les cartes adjacentes.


METAR-TAF: